Aircraft
UPR1004 PR-BIC B787-10
SVMI
Simón Bolívar International Airport
TNCM
Princess Juliana International Airport
Pilot:: Jair
Aircraft:: 787-10
Alternate: SVMI
Network: ivao
FLIGHT DETAILS
Distance: 501nm Duration 01h 40m
Cruise Speed: Flight Level: 35000
Validation: Validated Type Charter
Flight Fuel
ZFW: 152257
Block Fuel/Initial FOB: 53667
Flight Fuel: 9423
Cargo
Passengers: 280
Cargo: 21200
ROUTE
ROUTE: svmi dct tncm
REMARKS:
DATE
Date: 26-08-18
Departure Time: 0149
Cargo: 21200
FLIGHT DETAILS
Crashed: No
Validator Comments: Validado por Klebson
Flight Rating: 95
LANDING ANALYSIS
Landing wind: 80º/13 kt
Landing heading: 96º
Landing VS:: -402 ft/min
Landing IAS:: 134 kt
Landing Force G: 1.1 G
Landing Bank: -4
Landing Pitch: -7
Landing Flaps: 100
Navigation Lights: ON
Landing Lights: ON
Beacon Lights: ON
Strobe Lights: ON
viserfly

ALTITUDE CHART

viserfly

MAIN EVENTS

DATE EVENT IAS ALTITUDE
2026-08-18 01:47:18 FLYacars version 1.3.6 4 226
2026-08-18 01:47:19 Aircraft boarding in progress 4 226
2026-08-18 01:47:19 FLAPS 44% 4 226
2026-08-18 01:47:19 Navigation Lights ON 4 226
2026-08-18 01:47:19 Beacon Lights ON 4 226
2026-08-18 01:47:19 Strobe Lights ON 4 226
2026-08-18 01:47:19 Landing Lights ON 4 226
2026-08-18 01:47:19 Starting Engine 2 4 226
2026-08-18 01:47:19 Starting Engine 1 4 226
2026-08-18 01:47:25 Taxi Lights ON 4 226
2026-08-18 01:48:50 Aircraft taxiing to runway 9 225
2026-08-18 01:49:30 Detected Take-off roll, HDG 98, IAS 172kt, GS 173kt, G-force 1.0g, Pitch -2.7deg, Bank 0.0deg, Wind 090/04kt, Temp 27°C 172 202
2026-08-18 01:49:30 Airborne 172 202
2026-08-18 01:49:35 Gear UP, IAS 188kt, GS 190kt, ALT 58ft AGL 188 235
2026-08-18 01:50:05 FLAPS 33% 216kt, ALT 1140ft 216 1140
2026-08-18 01:50:06 FLAPS 22% 216kt, ALT 1183ft 216 1183
2026-08-18 01:50:27 FLAPS 11% 223kt, ALT 2270ft 223 2270
2026-08-18 01:50:38 Taxi Lights OFF 235 2897
2026-08-18 01:51:08 FLAPS 0% 251kt, ALT 4065ft 251 4065
2026-08-18 01:55:49 Landing Lights OFF 251 10867
2026-08-18 02:06:44 Aircraft on Top Of Climb at 36543ft, IAS 284kt, GS 481kt, HDG 349deg, TAT -42deg, WIND 6/13kt 284 36543
2026-08-18 02:59:40 Aircraft on Top Of Descent at 34498ft, IAS 247kt, GS 411kt, HDG 81deg, TAT -39deg, WIND 17/16kt 247 34498
2026-08-18 03:08:26 Stall flag 200 21851
2026-08-18 03:15:06 Landing Lights ON 190 10279
2026-08-18 03:15:08 Taxi Lights ON 190 10191
2026-08-18 03:15:54 FLAPS 11% 190kt, ALT 8501ft 190 8501
2026-08-18 03:16:06 FLAPS 22% 190kt, ALT 8173ft 190 8173
2026-08-18 03:16:29 FLAPS 33% 187kt, ALT 7480ft 187 7480
2026-08-18 03:16:37 FLAPS 44% 186kt, ALT 7260ft 186 7260
2026-08-18 03:17:36 Gear DOWN, IAS 178kt, GS 186kt, ALT 5381ft AGL 178 5382
2026-08-18 03:18:49 FLAPS 55% 140kt, ALT 3172ft 140 3172
2026-08-18 03:19:08 FLAPS 66% 148kt, ALT 3179ft 148 3179
2026-08-18 03:19:09 FLAPS 88% 148kt, ALT 3179ft 148 3179
2026-08-18 03:19:09 FLAPS 100% 148kt, ALT 3179ft 148 3179
2026-08-18 03:29:43 Landed at destination with a landing rate of -402fpm, G-force 1.1g, Pitch -6.8deg, Bank -4.3deg, HDG 96deg, IAS 134kt, GS 125kt, Wind 080/13kt, Temp 28°C 134 31
2026-08-18 03:30:04 FLAPS 88% 38 27
2026-08-18 03:30:04 FLAPS 77% 37 27
2026-08-18 03:30:05 FLAPS 44% 37 27
2026-08-18 03:30:05 FLAPS 11% 37 27
2026-08-18 03:30:05 FLAPS 0% 37 27
2026-08-18 03:30:07 Aircraft taxiing to apron 35 27
2026-08-18 03:30:17 Landing Lights OFF 24 27
2026-08-18 03:36:06 Taxi Lights OFF 0 26
2026-08-18 03:37:34 Aircraft at gate/stand, ground services are moving into position, disembarkation has begun. Remaining FOB 44244kg FLYacars v1.3.6 0 26
viserfly

ACARS DATA

DATE IAS GS ALTITUDE FUEL CONSUMED OAT FLIGHT STATUS
2026-08-18 01:47:48 3 0 226 11 27 BOARDING
2026-08-18 01:48:18 4 1 226 21 27 BOARDING
2026-08-18 01:48:48 9 5 225 32 27 PUSHBACK
2026-08-18 01:49:18 120 120 213 148 27 TAKEOFF
2026-08-18 01:49:48 196 198 766 318 26 TAKEOFF
2026-08-18 01:50:18 218 228 1846 442 24 INITIAL CLIMB
2026-08-18 01:50:48 243 252 3519 577 25 CLIMB
2026-08-18 01:51:18 253 273 4112 663 20 CLIMB
2026-08-18 01:51:48 252 273 4118 696 20 ENROUTE
2026-08-18 01:52:18 251 273 4121 729 20 ENROUTE
2026-08-18 01:52:48 250 272 4135 762 20 ENROUTE
2026-08-18 01:53:18 252 273 4136 796 20 ENROUTE
2026-08-18 01:53:48 252 275 4135 829 20 ENROUTE
2026-08-18 01:54:18 252 274 4312 869 19 CLIMB
2026-08-18 01:54:48 249 277 6307 986 16 CLIMB
2026-08-18 01:55:18 250 289 8659 1121 12 CLIMB
2026-08-18 01:55:48 251 300 10829 1246 9 CLIMB
2026-08-18 01:56:18 275 334 12287 1368 7 CLIMB
2026-08-18 01:56:48 294 360 13757 1490 4 CLIMB
2026-08-18 01:57:18 295 370 15650 1610 1 CLIMB
2026-08-18 01:57:48 295 380 17482 1726 -1 CLIMB
2026-08-18 01:58:18 295 390 19149 1837 -5 CLIMB
2026-08-18 01:58:48 295 399 20726 1944 -7 CLIMB
2026-08-18 01:59:18 295 409 22198 2049 -10 CLIMB
2026-08-18 01:59:48 295 417 23562 2149 -13 CLIMB
2026-08-18 02:00:18 296 425 24859 2246 -15 CLIMB
2026-08-18 02:00:48 296 432 26083 2341 -18 CLIMB
2026-08-18 02:01:18 296 439 27232 2433 -21 CLIMB
2026-08-18 02:01:48 296 446 28309 2524 -23 CLIMB
2026-08-18 02:02:18 296 453 29323 2612 -25 CLIMB
2026-08-18 02:02:48 297 459 30275 2699 -27 CLIMB
2026-08-18 02:03:18 295 466 31172 2784 -29 CLIMB
2026-08-18 02:03:48 297 472 32012 2867 -31 CLIMB
2026-08-18 02:04:19 296 475 32860 2949 -33 CLIMB
2026-08-18 02:04:49 296 479 33672 3028 -35 CLIMB
2026-08-18 02:05:19 295 484 34360 3107 -37 CLIMB
2026-08-18 02:05:49 290 483 35180 3183 -39 CLIMB
2026-08-18 02:06:19 286 482 36039 3257 -41 CLIMB
2026-08-18 02:06:49 282 481 36547 3318 -42 ENROUTE
2026-08-18 02:07:19 280 474 36577 3356 -42 ENROUTE
2026-08-18 02:07:48 279 472 36582 3400 -42 ENROUTE
2026-08-18 02:08:19 280 472 36584 3444 -43 ENROUTE
2026-08-18 02:08:49 278 471 36565 3486 -42 ENROUTE
2026-08-18 02:09:19 279 471 36559 3531 -42 ENROUTE
2026-08-18 02:09:49 280 472 36563 3575 -42 ENROUTE
2026-08-18 02:10:19 280 472 36558 3619 -42 ENROUTE
2026-08-18 02:10:49 278 471 36559 3662 -42 ENROUTE
2026-08-18 02:11:19 280 471 36559 3706 -43 ENROUTE
2026-08-18 02:11:49 280 471 36559 3749 -43 ENROUTE
2026-08-18 02:12:19 280 471 36560 3793 -43 ENROUTE
2026-08-18 02:12:49 280 471 36561 3836 -43 ENROUTE
2026-08-18 02:13:19 279 471 36558 3879 -43 ENROUTE
2026-08-18 02:13:49 280 471 36558 3923 -43 ENROUTE
2026-08-18 02:14:19 280 472 36559 3968 -43 ENROUTE
2026-08-18 02:14:49 280 472 36560 4012 -43 ENROUTE
2026-08-18 02:15:18 280 472 36561 4055 -43 ENROUTE
2026-08-18 02:15:49 279 472 36560 4098 -43 ENROUTE
2026-08-18 02:16:18 279 472 36561 4142 -43 ENROUTE
2026-08-18 02:16:49 280 472 36562 4186 -43 ENROUTE
2026-08-18 02:17:19 280 472 36559 4229 -43 ENROUTE
2026-08-18 02:17:49 279 472 36559 4273 -43 ENROUTE
2026-08-18 02:18:19 280 472 36560 4316 -43 ENROUTE
2026-08-18 02:18:49 280 472 36561 4360 -43 ENROUTE
2026-08-18 02:19:18 280 472 36561 4404 -43 ENROUTE
2026-08-18 02:19:49 279 471 36559 4445 -43 ENROUTE
2026-08-18 02:20:18 279 471 36558 4489 -43 ENROUTE
2026-08-18 02:20:49 280 471 36559 4532 -43 ENROUTE
2026-08-18 02:21:19 280 471 36559 4576 -43 ENROUTE
2026-08-18 02:21:49 280 471 36559 4619 -43 ENROUTE
2026-08-18 02:22:19 279 470 36560 4662 -43 ENROUTE
2026-08-18 02:22:48 279 470 36560 4705 -43 ENROUTE
2026-08-18 02:23:19 280 470 36560 4749 -43 ENROUTE
2026-08-18 02:23:49 280 470 36561 4793 -43 ENROUTE
2026-08-18 02:24:19 279 470 36561 4836 -43 ENROUTE
2026-08-18 02:24:49 280 470 36561 4879 -43 ENROUTE
2026-08-18 02:25:18 280 471 36559 4923 -43 ENROUTE
2026-08-18 02:25:49 280 470 36560 4966 -43 ENROUTE
2026-08-18 02:26:19 279 470 36559 5009 -43 ENROUTE
2026-08-18 02:26:49 279 470 36559 5053 -43 ENROUTE
2026-08-18 02:27:19 280 471 36560 5098 -43 ENROUTE
2026-08-18 02:27:49 281 471 36562 5142 -43 ENROUTE
2026-08-18 02:28:19 280 471 36557 5185 -43 ENROUTE
2026-08-18 02:28:49 278 471 36557 5229 -43 ENROUTE
2026-08-18 02:29:19 280 471 36558 5272 -43 ENROUTE
2026-08-18 02:29:49 281 471 36559 5316 -43 ENROUTE
2026-08-18 02:30:19 281 471 36560 5359 -43 ENROUTE
2026-08-18 02:30:49 279 470 36560 5402 -43 ENROUTE
2026-08-18 02:31:19 280 470 36560 5446 -43 ENROUTE
2026-08-18 02:31:49 280 473 36578 5492 -43 ENROUTE
2026-08-18 02:32:18 280 476 36559 5536 -43 ENROUTE
2026-08-18 02:32:49 280 476 36564 5579 -43 ENROUTE
2026-08-18 02:33:19 279 472 36556 5622 -43 ENROUTE
2026-08-18 02:33:49 279 472 36557 5666 -43 ENROUTE
2026-08-18 02:34:19 279 472 36561 5709 -43 ENROUTE
2026-08-18 02:34:49 279 472 36560 5753 -43 ENROUTE
2026-08-18 02:35:19 279 472 36558 5797 -43 ENROUTE
2026-08-18 02:35:48 279 471 36559 5839 -43 ENROUTE
2026-08-18 02:36:19 280 471 36560 5883 -43 ENROUTE
2026-08-18 02:36:49 280 471 36560 5927 -43 ENROUTE
2026-08-18 02:37:19 280 471 36561 5970 -43 ENROUTE
2026-08-18 02:37:49 281 471 36557 6014 -43 ENROUTE
2026-08-18 02:38:19 280 470 36559 6057 -43 ENROUTE
2026-08-18 02:38:49 280 470 36559 6100 -43 ENROUTE
2026-08-18 02:39:19 281 470 36559 6144 -43 ENROUTE
2026-08-18 02:39:48 281 470 36559 6187 -43 ENROUTE
2026-08-18 02:40:19 277 463 36554 6223 -44 ENROUTE
2026-08-18 02:40:48 271 455 36540 6255 -44 ENROUTE
2026-08-18 02:41:19 270 453 36540 6293 -44 ENROUTE
2026-08-18 02:41:49 269 452 36542 6331 -44 ENROUTE
2026-08-18 02:42:19 269 452 36545 6371 -44 ENROUTE
2026-08-18 02:42:48 269 451 36540 6410 -44 ENROUTE
2026-08-18 02:43:19 268 449 36575 6453 -44 ENROUTE
2026-08-18 02:43:49 269 451 36582 6494 -44 ENROUTE
2026-08-18 02:44:18 269 453 36558 6535 -44 ENROUTE
2026-08-18 02:44:49 269 452 36561 6574 -44 ENROUTE
2026-08-18 02:45:18 268 451 36556 6615 -44 ENROUTE
2026-08-18 02:45:49 268 451 36554 6656 -44 ENROUTE
2026-08-18 02:46:19 269 452 36557 6696 -44 ENROUTE
2026-08-18 02:46:48 270 452 36556 6736 -44 ENROUTE
2026-08-18 02:47:19 269 452 36560 6776 -44 ENROUTE
2026-08-18 02:47:49 267 451 36561 6815 -44 ENROUTE
2026-08-18 02:48:19 269 452 36556 6855 -44 ENROUTE
2026-08-18 02:48:49 269 452 36557 6896 -44 ENROUTE
2026-08-18 02:49:19 269 453 36556 6936 -44 ENROUTE
2026-08-18 02:49:49 268 452 36557 6975 -44 ENROUTE
2026-08-18 02:50:19 268 452 36556 7015 -44 ENROUTE
2026-08-18 02:50:49 268 453 36557 7055 -44 ENROUTE
2026-08-18 02:51:19 270 453 36557 7094 -44 ENROUTE
2026-08-18 02:51:49 269 453 36557 7134 -44 ENROUTE
2026-08-18 02:52:19 268 453 36558 7174 -44 ENROUTE
2026-08-18 02:52:49 269 452 36557 7213 -44 ENROUTE
2026-08-18 02:53:18 269 453 36558 7253 -44 ENROUTE
2026-08-18 02:53:48 269 452 36560 7293 -44 ENROUTE
2026-08-18 02:54:19 268 453 36575 7332 -44 ENROUTE
2026-08-18 02:54:48 268 458 36564 7374 -44 ENROUTE
2026-08-18 02:55:18 267 458 36554 7414 -44 ENROUTE
2026-08-18 02:55:49 268 457 36548 7454 -44 ENROUTE
2026-08-18 02:56:19 269 457 36550 7494 -44 ENROUTE
2026-08-18 02:56:49 268 456 36552 7533 -44 ENROUTE
2026-08-18 02:57:19 268 457 36552 7573 -44 ENROUTE
2026-08-18 02:57:48 269 456 36381 7608 -43 DESCENT
2026-08-18 02:58:19 270 452 35557 7623 -41 DESCENT
2026-08-18 02:58:49 260 435 35198 7635 -40 DESCENT
2026-08-18 02:59:18 252 418 34876 7646 -40 DESCENT
2026-08-18 02:59:48 248 409 34333 7656 -38 DESCENT
2026-08-18 03:00:18 245 402 33676 7666 -37 DESCENT
2026-08-18 03:00:49 244 396 33038 7676 -35 DESCENT
2026-08-18 03:01:19 242 390 32414 7686 -33 DESCENT
2026-08-18 03:01:49 240 383 31796 7695 -32 DESCENT
2026-08-18 03:02:19 238 377 31191 7704 -30 DESCENT
2026-08-18 03:02:49 237 370 30595 7713 -29 DESCENT
2026-08-18 03:03:19 235 364 30008 7722 -28 DESCENT
2026-08-18 03:03:49 233 358 29428 7730 -26 DESCENT
2026-08-18 03:04:19 231 351 28855 7738 -25 DESCENT
2026-08-18 03:04:49 229 344 28252 7746 -24 DESCENT
2026-08-18 03:05:19 227 335 27640 7753 -22 DESCENT
2026-08-18 03:05:49 227 335 27013 7763 -21 DESCENT
2026-08-18 03:06:19 219 323 25975 7771 -18 DESCENT
2026-08-18 03:06:49 218 329 25065 7793 -16 DESCENT
2026-08-18 03:07:19 215 329 24174 7812 -14 DESCENT
2026-08-18 03:07:49 206 314 23160 7815 -12 DESCENT
2026-08-18 03:08:19 201 302 22111 7818 -10 DESCENT
2026-08-18 03:08:49 194 290 21038 7819 -8 DESCENT
2026-08-18 03:09:19 202 290 20125 7834 -7 DESCENT
2026-08-18 03:09:49 209 289 19247 7836 -5 DESCENT
2026-08-18 03:10:19 212 277 18383 7838 -3 DESCENT
2026-08-18 03:10:49 211 266 17622 7840 -2 DESCENT
2026-08-18 03:11:19 219 271 16711 7841 0 DESCENT
2026-08-18 03:11:49 224 279 15823 7843 0 DESCENT
2026-08-18 03:12:19 229 291 14949 7846 2 DESCENT
2026-08-18 03:12:49 235 302 14053 7848 4 DESCENT
2026-08-18 03:13:19 237 310 13168 7851 5 DESCENT
2026-08-18 03:13:49 228 294 12187 7853 7 DESCENT
2026-08-18 03:14:19 220 278 11156 7854 8 DESCENT
2026-08-18 03:14:49 201 253 10444 7854 10 ENROUTE
2026-08-18 03:15:19 190 242 9794 7861 11 DESCENT
2026-08-18 03:15:49 191 241 8699 7862 14 DESCENT
2026-08-18 03:16:19 188 222 7798 7864 16 DESCENT
2026-08-18 03:16:49 183 205 6914 7866 18 DESCENT
2026-08-18 03:17:19 179 196 5971 7869 18 DESCENT
2026-08-18 03:17:49 175 177 4949 7871 18 DESCENT
2026-08-18 03:18:19 161 161 3932 7875 20 DESCENT
2026-08-18 03:18:49 140 140 3174 7882 21 DESCENT
2026-08-18 03:19:19 145 145 3182 7950 21 ENROUTE
2026-08-18 03:19:49 143 138 3166 8016 21 ENROUTE
2026-08-18 03:20:19 147 142 3184 8088 21 ENROUTE
2026-08-18 03:20:49 147 143 3172 8158 21 ENROUTE
2026-08-18 03:21:19 146 141 3171 8227 21 ENROUTE
2026-08-18 03:21:49 146 144 3172 8299 21 ENROUTE
2026-08-18 03:22:19 146 143 3176 8371 21 ENROUTE
2026-08-18 03:22:49 144 139 3170 8442 21 ENROUTE
2026-08-18 03:23:19 143 137 3105 8507 21 ENROUTE
2026-08-18 03:23:49 144 142 3112 8583 21 ENROUTE
2026-08-18 03:24:19 141 135 3097 8646 21 ENROUTE
2026-08-18 03:24:49 143 138 3100 8716 21 ENROUTE
2026-08-18 03:25:19 144 138 3107 8787 21 ENROUTE
2026-08-18 03:25:49 141 133 2760 8829 21 DESCENT
2026-08-18 03:26:19 142 135 2400 8878 22 APPROACH
2026-08-18 03:26:49 143 130 2039 8923 23 APPROACH
2026-08-18 03:27:19 142 128 1690 8968 24 APPROACH
2026-08-18 03:27:49 140 130 1344 9024 25 APPROACH
2026-08-18 03:28:19 139 127 988 9073 26 ON FINAL
2026-08-18 03:28:49 138 131 647 9125 27 ON FINAL
2026-08-18 03:29:19 133 129 242 9173 28 ON FINAL
2026-08-18 03:29:49 116 107 28 9220 28 ON FINAL
2026-08-18 03:30:19 23 13 27 9242 28 TAXI TO APRON
2026-08-18 03:30:49 10 1 26 9254 28 TAXI TO APRON
2026-08-18 03:31:19 0 0 26 9275 28 TAXI TO APRON
2026-08-18 03:31:49 0 3 27 9300 28 TAXI TO APRON
2026-08-18 03:32:19 7 19 27 9321 28 TAXI TO APRON
2026-08-18 03:32:49 8 20 27 9332 28 TAXI TO APRON
2026-08-18 03:33:19 0 6 26 9343 28 TAXI TO APRON
2026-08-18 03:33:49 3 5 26 9354 28 TAXI TO APRON
2026-08-18 03:34:19 5 6 26 9365 28 TAXI TO APRON
2026-08-18 03:34:49 13 7 26 9376 28 TAXI TO APRON
2026-08-18 03:35:19 0 0 26 9387 28 TAXI TO APRON
2026-08-18 03:35:49 0 0 26 9401 28 TAXI TO APRON
2026-08-18 03:36:19 0 0 26 9413 28 TAXI TO APRON
2026-08-18 03:36:49 0 0 26 9421 28 TAXI TO APRON
2026-08-18 03:37:19 0 0 26 9422 28 TAXI TO APRON
  • Join our VA!

    It has been 11 years of great learning, friendships, and stories.

  • Sign up now!